createdAt,value
2022-09-10T00:00:37.598Z,19.2
2022-09-10T00:02:37.624Z,19.3
2022-09-10T00:04:37.681Z,19.5
2022-09-10T00:06:37.613Z,19.6
2022-09-10T00:08:37.708Z,19.5
2022-09-10T00:10:37.587Z,19.5
2022-09-10T00:12:37.630Z,19.6
2022-09-10T00:14:37.628Z,19.6
2022-09-10T00:16:37.687Z,19.5
2022-09-10T00:18:37.720Z,19.6
2022-09-10T00:20:37.601Z,19.5
2022-09-10T00:22:37.604Z,19.5
2022-09-10T00:24:37.627Z,19.6
2022-09-10T00:26:37.612Z,19.7
2022-09-10T00:28:37.796Z,19.4
2022-09-10T00:30:37.623Z,19.5
2022-09-10T00:32:37.604Z,19.5
2022-09-10T00:34:37.704Z,19.5
2022-09-10T00:36:37.688Z,19.3
2022-09-10T00:38:37.763Z,19.0
2022-09-10T00:40:37.644Z,19.0
2022-09-10T00:42:37.653Z,18.8
2022-09-10T00:44:37.632Z,18.9
2022-09-10T00:46:37.645Z,18.7
2022-09-10T00:48:37.746Z,18.7
2022-09-10T00:50:37.651Z,18.9
2022-09-10T00:52:39.784Z,18.6
2022-09-10T00:54:37.747Z,18.5
2022-09-10T00:56:37.647Z,18.6
2022-09-10T00:58:37.922Z,18.3
2022-09-10T01:00:37.661Z,18.1
2022-09-10T01:02:37.642Z,17.9
2022-09-10T01:04:37.660Z,17.7
2022-09-10T01:06:37.667Z,17.9
2022-09-10T01:08:37.976Z,18.2
2022-09-10T01:10:37.769Z,18.3
2022-09-10T01:12:37.648Z,17.9
2022-09-10T01:14:37.696Z,18.2
2022-09-10T01:16:37.693Z,18.4
2022-09-10T01:18:37.666Z,18.4
2022-09-10T01:20:37.648Z,18.5
2022-09-10T01:22:37.676Z,18.6
2022-09-10T01:24:37.692Z,19.0
2022-09-10T01:26:37.639Z,18.8
2022-09-10T01:28:37.867Z,19.0
2022-09-10T01:30:37.651Z,19.3
2022-09-10T01:32:37.698Z,19.2
2022-09-10T01:34:37.675Z,19.4
2022-09-10T01:36:37.680Z,19.6
2022-09-10T01:39:07.709Z,19.8
2022-09-10T01:41:07.661Z,19.7
2022-09-10T01:43:07.799Z,19.8
2022-09-10T01:45:07.665Z,19.8
2022-09-10T01:47:07.696Z,20.4
2022-09-10T01:49:07.683Z,20.1
2022-09-10T01:51:07.705Z,20.1
2022-09-10T01:53:07.685Z,20.3
2022-09-10T01:55:07.704Z,20.4
2022-09-10T01:57:07.713Z,20.3
2022-09-10T01:59:07.797Z,20.6
2022-09-10T02:01:07.727Z,20.5
2022-09-10T02:03:07.671Z,20.6
2022-09-10T02:05:07.725Z,20.7
2022-09-10T02:07:07.718Z,20.5
2022-09-10T02:09:07.689Z,20.5
2022-09-10T02:11:07.801Z,20.3
2022-09-10T02:13:07.676Z,20.3
2022-09-10T02:15:07.690Z,20.2
2022-09-10T02:17:07.716Z,20.2
2022-09-10T02:19:07.683Z,19.9
2022-09-10T02:21:10.718Z,19.6
2022-09-10T02:23:07.716Z,19.6
2022-09-10T02:25:07.716Z,19.8
2022-09-10T02:27:07.743Z,19.7
2022-09-10T02:29:07.704Z,19.7
2022-09-10T02:31:07.688Z,19.4
2022-09-10T02:33:07.729Z,19.4
2022-09-10T02:35:07.741Z,19.3
2022-09-10T02:37:07.705Z,19.0
2022-09-10T02:39:07.728Z,19.3
2022-09-10T02:41:07.720Z,19.2
2022-09-10T02:43:07.768Z,19.1
2022-09-10T02:45:07.808Z,19.0
2022-09-10T02:47:07.699Z,18.6
2022-09-10T02:49:07.717Z,19.0
2022-09-10T02:51:07.702Z,19.0
2022-09-10T02:53:07.767Z,18.9
2022-09-10T02:55:07.756Z,18.8
2022-09-10T02:57:07.737Z,19.0
2022-09-10T02:59:07.717Z,18.9
2022-09-10T03:01:07.760Z,19.3
2022-09-10T03:03:07.703Z,19.5
2022-09-10T03:05:07.808Z,19.4
2022-09-10T03:07:07.747Z,19.4
2022-09-10T03:09:07.789Z,19.5
2022-09-10T03:11:07.717Z,19.7
2022-09-10T03:13:07.729Z,19.7
2022-09-10T03:15:07.728Z,19.5
2022-09-10T03:17:07.839Z,19.7
2022-09-10T03:19:07.769Z,20.0
2022-09-10T03:21:07.746Z,20.5
2022-09-10T03:23:07.756Z,20.3
2022-09-10T03:25:07.745Z,20.2
2022-09-10T03:27:07.784Z,20.2
2022-09-10T03:29:07.732Z,20.3
2022-09-10T03:31:37.966Z,20.4
2022-09-10T03:33:37.791Z,20.6
2022-09-10T03:35:37.797Z,20.6
2022-09-10T03:37:37.786Z,20.6
2022-09-10T03:39:37.787Z,20.6
2022-09-10T03:41:37.789Z,20.8
2022-09-10T03:43:37.760Z,20.9
2022-09-10T03:45:37.844Z,21.1
2022-09-10T03:47:37.745Z,21.5
2022-09-10T03:49:37.792Z,21.5
2022-09-10T03:51:37.773Z,21.5
2022-09-10T03:53:37.788Z,21.6
2022-09-10T03:55:37.837Z,21.8
2022-09-10T03:57:37.750Z,21.6
2022-09-10T03:59:37.784Z,21.5
2022-09-10T04:01:37.804Z,21.4
2022-09-10T04:03:37.974Z,21.3
2022-09-10T04:05:37.780Z,21.2
2022-09-10T04:07:37.791Z,21.3
2022-09-10T04:09:37.779Z,21.3
2022-09-10T04:11:37.876Z,21.1
2022-09-10T04:13:37.800Z,21.2
2022-09-10T04:15:37.768Z,21.3
2022-09-10T04:17:37.807Z,21.0
2022-09-10T04:19:37.794Z,21.2
2022-09-10T04:21:37.787Z,20.9
2022-09-10T04:23:37.788Z,21.0
2022-09-10T04:25:37.816Z,20.9
2022-09-10T04:27:37.775Z,21.0
2022-09-10T04:29:37.776Z,21.0
2022-09-10T04:31:37.868Z,20.9
2022-09-10T04:33:37.772Z,20.7
2022-09-10T04:35:37.821Z,20.9
2022-09-10T04:37:37.818Z,21.0
2022-09-10T04:39:37.856Z,20.8
2022-09-10T04:41:37.806Z,21.0
2022-09-10T04:43:37.853Z,21.1
2022-09-10T04:45:37.835Z,21.2
2022-09-10T04:47:37.825Z,21.0
2022-09-10T04:49:37.792Z,20.8
2022-09-10T04:51:37.819Z,20.7
2022-09-10T04:53:37.841Z,20.6
2022-09-10T04:55:37.864Z,20.4
2022-09-10T04:57:37.845Z,20.4
2022-09-10T04:59:37.825Z,20.4
2022-09-10T05:01:37.836Z,20.4
2022-09-10T05:03:37.876Z,20.4
2022-09-10T05:05:37.811Z,20.4
2022-09-10T05:07:37.797Z,20.3
2022-09-10T05:09:37.827Z,20.2
2022-09-10T05:11:37.808Z,20.4
2022-09-10T05:13:38.256Z,20.5
2022-09-10T05:15:38.088Z,20.5
2022-09-10T05:17:37.821Z,20.8
2022-09-10T05:19:37.799Z,20.3
2022-09-10T05:21:37.811Z,20.5
2022-09-10T05:23:37.849Z,20.6
2022-09-10T05:26:07.809Z,20.6
2022-09-10T05:28:07.834Z,20.6
2022-09-10T05:30:08.044Z,20.7
2022-09-10T05:32:07.809Z,20.9
2022-09-10T05:34:07.815Z,21.0
2022-09-10T05:36:07.835Z,21.1
2022-09-10T05:38:07.844Z,21.0
2022-09-10T05:40:07.866Z,21.0
2022-09-10T05:42:07.861Z,20.8
2022-09-10T05:44:07.878Z,21.1
2022-09-10T05:46:07.834Z,20.6
2022-09-10T05:48:08.020Z,20.6
2022-09-10T05:50:07.870Z,20.4
2022-09-10T05:52:08.462Z,20.6
2022-09-10T05:54:07.874Z,20.5
2022-09-10T05:56:07.903Z,20.8
2022-09-10T05:58:07.855Z,21.1
2022-09-10T06:00:07.929Z,20.9
2022-09-10T06:02:07.942Z,21.1
2022-09-10T06:04:07.927Z,21.1
2022-09-10T06:06:08.050Z,21.3
2022-09-10T06:08:08.932Z,21.3
2022-09-10T06:10:07.952Z,21.5
2022-09-10T06:12:07.880Z,21.3
2022-09-10T06:14:07.872Z,21.1
2022-09-10T06:16:07.939Z,20.9
2022-09-10T06:18:07.929Z,21.1
2022-09-10T06:20:07.967Z,21.2
2022-09-10T06:22:07.959Z,21.1
2022-09-10T06:24:07.867Z,21.2
2022-09-10T06:26:07.945Z,21.3
2022-09-10T06:28:07.957Z,21.0
2022-09-10T06:30:07.909Z,20.9
2022-09-10T06:32:11.788Z,20.9
2022-09-10T06:34:07.930Z,20.8
2022-09-10T06:36:07.940Z,20.7
2022-09-10T06:38:07.966Z,20.5
2022-09-10T06:40:18.332Z,20.5
2022-09-10T06:42:18.505Z,20.7
2022-09-10T06:44:18.328Z,20.4
2022-09-10T06:46:56.853Z,20.8
2022-09-10T06:48:38.104Z,21.1
2022-09-10T06:50:18.345Z,21.0
2022-09-10T06:52:18.317Z,20.8
2022-09-10T06:54:18.313Z,20.8
2022-09-10T06:56:18.329Z,21.0
2022-09-10T06:58:18.340Z,20.9
2022-09-10T07:00:18.381Z,20.9
2022-09-10T07:02:18.450Z,20.8
2022-09-10T07:04:18.431Z,20.5
2022-09-10T07:06:18.345Z,20.4
2022-09-10T07:08:18.538Z,20.5
2022-09-10T07:10:18.349Z,20.6
2022-09-10T07:12:18.317Z,20.5
2022-09-10T07:14:18.383Z,20.7
2022-09-10T07:16:18.344Z,20.8
2022-09-10T07:18:18.341Z,20.7
2022-09-10T07:20:18.364Z,20.3
2022-09-10T07:22:18.354Z,20.3
2022-09-10T07:24:18.344Z,20.1
2022-09-10T07:26:18.336Z,20.1
2022-09-10T07:28:18.326Z,20.2
2022-09-10T07:30:18.423Z,20.2
2022-09-10T07:32:18.394Z,20.0
2022-09-10T07:34:18.360Z,20.1
2022-09-10T07:36:18.395Z,20.1
2022-09-10T07:38:18.341Z,20.3
2022-09-10T07:40:18.469Z,20.5
2022-09-10T07:42:18.379Z,20.1
2022-09-10T07:44:18.393Z,20.0
2022-09-10T07:46:18.531Z,19.9
2022-09-10T07:48:18.346Z,19.7
2022-09-10T07:50:18.340Z,19.9
2022-09-10T07:52:18.466Z,19.8
2022-09-10T07:54:18.376Z,19.8
2022-09-10T07:56:18.496Z,19.7
2022-09-10T07:58:18.499Z,19.8
2022-09-10T08:00:48.417Z,19.6
2022-09-10T08:02:48.383Z,19.6
2022-09-10T08:04:48.367Z,19.8
2022-09-10T08:06:48.466Z,19.7
2022-09-10T08:08:48.387Z,19.6
2022-09-10T08:10:48.472Z,19.3
2022-09-10T08:12:48.383Z,19.3
2022-09-10T08:14:48.385Z,19.2
2022-09-10T08:16:48.396Z,19.1
2022-09-10T08:18:48.371Z,19.5
2022-09-10T08:20:48.387Z,19.9
2022-09-10T08:22:48.367Z,19.6
2022-09-10T08:24:48.461Z,19.6
2022-09-10T08:26:48.383Z,19.6
2022-09-10T08:28:48.440Z,19.6
2022-09-10T08:30:48.574Z,19.8
2022-09-10T08:32:48.413Z,20.0
2022-09-10T08:34:48.576Z,20.0
2022-09-10T08:36:48.482Z,20.3
2022-09-10T08:38:48.463Z,20.2
2022-09-10T08:40:48.372Z,20.1
2022-09-10T08:42:48.387Z,20.1
2022-09-10T08:44:48.417Z,20.5
2022-09-10T08:46:48.489Z,20.6
2022-09-10T08:48:48.472Z,20.6
2022-09-10T08:50:48.488Z,20.5
2022-09-10T08:52:48.407Z,20.6
2022-09-10T08:54:48.608Z,20.7
2022-09-10T08:56:48.549Z,20.3
2022-09-10T08:58:48.444Z,20.1
2022-09-10T09:00:48.545Z,20.3
2022-09-10T09:02:49.706Z,20.5
2022-09-10T09:04:48.479Z,20.3
2022-09-10T09:06:48.508Z,20.2
2022-09-10T09:08:48.689Z,20.4
2022-09-10T09:10:48.520Z,20.4
2022-09-10T09:12:49.445Z,20.7
2022-09-10T09:14:48.473Z,20.7
2022-09-10T09:16:48.478Z,20.7
2022-09-10T09:18:48.501Z,20.5
2022-09-10T09:20:48.495Z,20.3
2022-09-10T09:22:48.495Z,20.6
2022-09-10T09:24:48.540Z,20.6
2022-09-10T09:26:48.553Z,20.6
2022-09-10T09:28:48.497Z,20.4
2022-09-10T09:30:48.632Z,20.4
2022-09-10T09:32:48.484Z,20.3
2022-09-10T09:34:48.493Z,20.1
2022-09-10T09:36:48.485Z,19.9
2022-09-10T09:38:48.468Z,20.0
2022-09-10T09:40:48.451Z,20.2
2022-09-10T09:42:48.520Z,20.2
2022-09-10T09:44:48.478Z,19.8
2022-09-10T09:46:48.583Z,19.6
2022-09-10T09:48:48.524Z,19.7
2022-09-10T09:50:48.475Z,19.9
2022-09-10T09:52:48.536Z,19.8
2022-09-10T09:55:13.092Z,20.0
2022-09-10T09:57:18.701Z,20.5
2022-09-10T09:59:18.472Z,20.8
2022-09-10T10:01:18.528Z,20.5
2022-09-10T10:03:18.475Z,20.4
2022-09-10T10:05:18.515Z,20.6
2022-09-10T10:07:18.526Z,20.6
2022-09-10T10:09:18.582Z,20.6
2022-09-10T10:11:18.567Z,20.6
2022-09-10T10:13:18.551Z,20.1
2022-09-10T10:15:18.563Z,20.1
2022-09-10T10:17:18.513Z,19.9
2022-09-10T10:19:18.489Z,20.1
2022-09-10T10:21:18.541Z,20.0
2022-09-10T10:23:18.565Z,19.9
2022-09-10T10:25:18.589Z,19.5
2022-09-10T10:27:18.541Z,19.7
2022-09-10T10:29:18.561Z,19.8
2022-09-10T10:31:18.696Z,19.9
2022-09-10T10:33:18.532Z,19.9
2022-09-10T10:35:18.475Z,20.1
2022-09-10T10:37:18.539Z,19.8
2022-09-10T10:39:18.515Z,19.6
2022-09-10T10:41:18.595Z,19.7
2022-09-10T10:43:18.518Z,19.7
2022-09-10T10:45:18.493Z,20.0
2022-09-10T10:47:18.823Z,20.3
2022-09-10T10:49:18.516Z,20.4
2022-09-10T10:51:18.538Z,20.3
2022-09-10T10:53:18.595Z,20.5
2022-09-10T10:55:18.598Z,20.5
2022-09-10T10:57:18.584Z,20.1
2022-09-10T10:59:18.604Z,20.0
2022-09-10T11:01:18.619Z,19.9
2022-09-10T11:03:18.675Z,20.2
2022-09-10T11:05:18.781Z,20.4
2022-09-10T11:07:18.590Z,20.2
2022-09-10T11:09:18.559Z,20.3
2022-09-10T11:11:18.619Z,20.2
2022-09-10T11:13:18.599Z,20.5
2022-09-10T11:15:18.636Z,20.5
2022-09-10T11:17:18.540Z,20.5
2022-09-10T11:19:18.522Z,20.6
2022-09-10T11:21:18.526Z,20.7
2022-09-10T11:23:18.601Z,20.9
2022-09-10T11:25:18.584Z,21.0
2022-09-10T11:27:18.596Z,21.1
2022-09-10T11:29:18.517Z,21.0
2022-09-10T11:31:18.752Z,20.9
2022-09-10T11:33:18.546Z,20.7
2022-09-10T11:35:18.549Z,20.6
2022-09-10T11:37:18.569Z,20.9
2022-09-10T11:39:18.573Z,20.9
2022-09-10T11:41:18.596Z,20.9
2022-09-10T11:43:18.819Z,21.1
2022-09-10T11:45:18.832Z,20.9
2022-09-10T11:47:18.639Z,20.7
2022-09-10T11:49:18.592Z,20.6
2022-09-10T11:51:48.591Z,20.5
2022-09-10T11:53:48.583Z,20.5
2022-09-10T11:55:48.649Z,20.5
2022-09-10T11:57:48.649Z,20.5
2022-09-10T11:59:48.667Z,20.5
2022-09-10T12:01:48.807Z,20.5
2022-09-10T12:03:48.566Z,20.4
2022-09-10T12:05:48.547Z,20.2
2022-09-10T12:07:48.577Z,20.1
2022-09-10T12:09:48.605Z,20.0
2022-09-10T12:11:48.613Z,20.2
2022-09-10T12:13:48.623Z,20.0
2022-09-10T12:15:48.662Z,19.8
2022-09-10T12:17:48.673Z,19.9
2022-09-10T12:19:48.674Z,19.8
2022-09-10T12:21:48.581Z,19.8
2022-09-10T12:23:48.601Z,19.6
2022-09-10T12:25:48.629Z,19.7
2022-09-10T12:27:48.623Z,19.6
2022-09-10T12:29:48.677Z,19.6
2022-09-10T12:31:48.645Z,20.0
2022-09-10T12:33:48.695Z,19.8
2022-09-10T12:35:48.703Z,19.8
2022-09-10T12:37:48.722Z,19.9
2022-09-10T12:39:48.690Z,19.6
2022-09-10T12:41:48.737Z,19.5
2022-09-10T12:43:48.748Z,19.5
2022-09-10T12:45:48.770Z,19.6
2022-09-10T12:47:48.705Z,19.4
2022-09-10T12:49:48.793Z,19.5
2022-09-10T12:51:49.734Z,19.6
2022-09-10T12:53:48.630Z,19.3
2022-09-10T12:55:48.645Z,19.3
2022-09-10T12:57:48.684Z,19.4
2022-09-10T12:59:48.677Z,19.1
2022-09-10T13:01:48.791Z,19.0
2022-09-10T13:03:48.704Z,19.1
2022-09-10T13:05:48.686Z,19.2
2022-09-10T13:07:48.816Z,19.5
2022-09-10T13:09:48.623Z,19.5
2022-09-10T13:11:48.720Z,19.7
2022-09-10T13:13:48.701Z,19.6
2022-09-10T13:15:48.732Z,19.7
2022-09-10T13:17:48.790Z,19.5
2022-09-10T13:19:48.764Z,19.5
2022-09-10T13:21:48.837Z,19.5
2022-09-10T13:23:48.711Z,19.8
2022-09-10T13:25:48.666Z,19.7
2022-09-10T13:27:48.638Z,19.5
2022-09-10T13:29:48.760Z,19.4
2022-09-10T13:31:48.731Z,19.0
2022-09-10T13:33:48.909Z,19.5
2022-09-10T13:35:48.807Z,19.8
2022-09-10T13:37:48.822Z,19.5
2022-09-10T13:39:48.727Z,19.5
2022-09-10T13:41:48.604Z,19.4
2022-09-10T13:43:48.777Z,19.3
2022-09-10T13:45:48.837Z,19.3
2022-09-10T13:48:18.608Z,19.1
2022-09-10T13:50:19.071Z,18.9
2022-09-10T13:52:18.728Z,19.0
2022-09-10T13:54:18.782Z,18.8
2022-09-10T13:56:18.779Z,19.1
2022-09-10T14:00:18.738Z,19.5
2022-09-10T14:02:18.792Z,19.4
2022-09-10T14:06:16.923Z,19.1
2022-09-10T14:08:16.918Z,19.1
2022-09-10T14:10:16.938Z,18.9
2022-09-10T14:12:16.970Z,18.9
2022-09-10T14:14:17.059Z,19.1
2022-09-10T14:16:16.960Z,19.0
2022-09-10T14:18:17.045Z,19.0
2022-09-10T14:20:16.894Z,19.3
2022-09-10T14:22:16.906Z,19.0
2022-09-10T14:24:16.940Z,19.2
2022-09-10T14:26:16.982Z,19.4
2022-09-10T14:28:17.022Z,19.4
2022-09-10T14:30:16.972Z,19.6
2022-09-10T14:32:16.914Z,19.5
2022-09-10T14:34:17.020Z,19.3
2022-09-10T14:36:16.910Z,19.2
2022-09-10T14:38:16.944Z,19.4
2022-09-10T14:40:16.999Z,19.3
2022-09-10T14:42:16.945Z,19.6
2022-09-10T14:44:18.246Z,19.5
2022-09-10T14:46:17.050Z,19.6
2022-09-10T14:48:16.896Z,19.9
2022-09-10T14:50:17.028Z,20.1
2022-09-10T14:52:16.955Z,20.1
2022-09-10T14:54:16.939Z,20.2
2022-09-10T14:56:16.939Z,20.0
2022-09-10T14:58:17.011Z,19.8
2022-09-10T15:00:17.024Z,19.9
2022-09-10T15:02:17.081Z,20.1
2022-09-10T15:04:16.997Z,20.0
2022-09-10T15:06:16.935Z,20.2
2022-09-10T15:08:16.946Z,20.0
2022-09-10T15:10:16.991Z,20.2
2022-09-10T15:12:16.992Z,20.4
2022-09-10T15:14:17.269Z,20.1
2022-09-10T15:16:17.074Z,20.3
2022-09-10T15:18:17.013Z,20.4
2022-09-10T15:20:17.117Z,20.1
2022-09-10T15:22:17.081Z,20.1
2022-09-10T15:24:16.948Z,19.8
2022-09-10T15:26:17.035Z,19.7
2022-09-10T15:28:17.214Z,19.8
2022-09-10T15:30:17.102Z,19.8
2022-09-10T15:32:20.296Z,19.7
2022-09-10T15:34:47.099Z,19.6
2022-09-10T15:36:46.964Z,19.7
2022-09-10T15:38:46.954Z,19.7
2022-09-10T15:40:47.018Z,19.6
2022-09-10T15:42:46.989Z,19.4
2022-09-10T15:44:47.104Z,19.2
2022-09-10T15:46:47.046Z,19.1
2022-09-10T15:48:47.133Z,19.3
2022-09-10T15:50:46.981Z,19.3
2022-09-10T15:52:46.946Z,19.3
2022-09-10T15:54:46.977Z,19.5
2022-09-10T15:56:47.048Z,19.4
2022-09-10T15:58:47.105Z,19.5
2022-09-10T16:00:47.015Z,19.4
2022-09-10T16:02:47.370Z,19.4
2022-09-10T16:04:47.051Z,19.4
2022-09-10T16:06:47.105Z,19.4
2022-09-10T16:08:47.124Z,19.6
2022-09-10T16:10:46.992Z,19.6
2022-09-10T16:12:47.119Z,19.4
2022-09-10T16:14:48.060Z,19.4
2022-09-10T16:16:47.135Z,19.5
2022-09-10T16:18:48.106Z,19.2
2022-09-10T16:20:47.056Z,19.2
2022-09-10T16:22:47.088Z,19.3
2022-09-10T16:24:47.029Z,19.4
2022-09-10T16:26:46.993Z,19.2
2022-09-10T16:28:47.062Z,19.0
2022-09-10T16:30:47.145Z,19.1
2022-09-10T16:32:47.047Z,19.1
2022-09-10T16:34:47.096Z,19.2
2022-09-10T16:36:47.068Z,19.4
2022-09-10T16:38:47.154Z,19.4
2022-09-10T16:40:46.995Z,19.6
2022-09-10T16:42:47.099Z,19.6
2022-09-10T16:44:47.075Z,20.0
2022-09-10T16:46:47.073Z,19.9
2022-09-10T16:48:47.095Z,19.7
2022-09-10T16:50:47.971Z,19.4
2022-09-10T16:52:47.117Z,19.3
2022-09-10T16:54:47.052Z,19.1
2022-09-10T16:56:47.049Z,19.3
2022-09-10T16:58:47.023Z,19.0
2022-09-10T17:00:47.028Z,19.2
2022-09-10T17:02:47.170Z,19.1
2022-09-10T17:04:47.082Z,18.8
2022-09-10T17:06:47.083Z,18.8
2022-09-10T17:08:47.152Z,18.8
2022-09-10T17:10:47.032Z,18.8
2022-09-10T17:12:47.062Z,19.0
2022-09-10T17:14:47.420Z,18.9
2022-09-10T17:16:47.115Z,18.9
2022-09-10T17:18:47.082Z,18.7
2022-09-10T17:20:47.095Z,18.8
2022-09-10T17:22:47.108Z,18.8
2022-09-10T17:24:47.125Z,18.6
2022-09-10T17:26:47.161Z,18.9
2022-09-10T17:28:47.071Z,18.8
2022-09-10T17:31:17.111Z,18.8
2022-09-10T17:33:17.097Z,18.6
2022-09-10T17:35:17.204Z,18.5
2022-09-10T17:37:17.139Z,18.3
2022-09-10T17:39:17.160Z,18.3
2022-09-10T17:41:17.050Z,18.4
2022-09-10T17:43:17.076Z,18.4
2022-09-10T17:45:17.091Z,18.2
2022-09-10T17:47:17.090Z,18.3
2022-09-10T17:49:17.142Z,18.3
2022-09-10T17:51:17.118Z,18.4
2022-09-10T17:53:17.152Z,18.4
2022-09-10T17:55:17.044Z,18.5
2022-09-10T17:57:19.100Z,18.5
2022-09-10T17:59:17.036Z,18.6
2022-09-10T18:01:21.270Z,18.6
2022-09-10T18:03:17.119Z,18.8
2022-09-10T18:05:17.044Z,18.7
2022-09-10T18:07:17.133Z,19.0
2022-09-10T18:09:17.184Z,19.2
2022-09-10T18:11:17.042Z,18.9
2022-09-10T18:13:17.078Z,19.0
2022-09-10T18:15:17.254Z,19.4
2022-09-10T18:17:17.173Z,19.4
2022-09-10T18:19:17.555Z,19.7
2022-09-10T18:21:17.240Z,19.8
2022-09-10T18:23:17.276Z,19.8
2022-09-10T18:25:17.201Z,19.8
2022-09-10T18:27:17.252Z,19.5
2022-09-10T18:29:17.222Z,19.4
2022-09-10T18:31:17.214Z,19.5
2022-09-10T18:33:17.245Z,19.7
2022-09-10T18:35:17.263Z,19.9
2022-09-10T18:37:17.241Z,19.9
2022-09-10T18:39:17.354Z,19.9
2022-09-10T18:41:17.118Z,19.6
2022-09-10T18:43:17.086Z,19.7
2022-09-10T18:45:17.075Z,19.7
2022-09-10T18:47:34.209Z,19.8
2022-09-10T18:49:20.938Z,19.9
2022-09-10T18:51:17.091Z,19.9
2022-09-10T18:53:17.076Z,20.0
2022-09-10T18:55:17.177Z,19.7
2022-09-10T18:57:17.092Z,19.8
2022-09-10T18:59:17.094Z,19.9
2022-09-10T19:01:17.177Z,19.6
2022-09-10T19:03:17.115Z,19.6
2022-09-10T19:05:17.114Z,19.6
2022-09-10T19:07:17.173Z,19.7
2022-09-10T19:09:17.274Z,19.3
2022-09-10T19:11:17.176Z,19.4
2022-09-10T19:13:17.133Z,19.1
2022-09-10T19:15:17.112Z,18.7
2022-09-10T19:17:17.167Z,18.8
2022-09-10T19:19:17.157Z,18.6
2022-09-10T19:21:17.167Z,18.6
2022-09-10T19:23:47.177Z,18.7
2022-09-10T19:25:47.196Z,18.4
2022-09-10T19:27:47.209Z,19.0
2022-09-10T19:29:47.154Z,19.3
2022-09-10T19:31:47.135Z,19.2
2022-09-10T19:33:47.169Z,19.1
2022-09-10T19:35:47.209Z,19.2
2022-09-10T19:37:47.212Z,19.2
2022-09-10T19:39:47.315Z,19.5
2022-09-10T19:41:47.244Z,19.8
2022-09-10T19:43:47.099Z,19.6
2022-09-10T19:45:47.165Z,19.6
2022-09-10T19:47:47.142Z,19.4
2022-09-10T19:49:47.187Z,19.1
2022-09-10T19:51:47.279Z,19.4
2022-09-10T19:53:47.252Z,19.3
2022-09-10T19:55:47.128Z,19.4
2022-09-10T19:57:47.218Z,19.3
2022-09-10T19:59:47.171Z,19.2
2022-09-10T20:01:47.258Z,19.3
2022-09-10T20:03:47.150Z,19.5
2022-09-10T20:05:47.166Z,19.5
2022-09-10T20:07:47.233Z,19.4
2022-09-10T20:09:47.270Z,19.4
2022-09-10T20:11:47.184Z,19.3
2022-09-10T20:13:47.340Z,19.6
2022-09-10T20:15:47.291Z,19.9
2022-09-10T20:17:47.263Z,19.9
2022-09-10T20:19:47.268Z,19.9
2022-09-10T20:21:47.303Z,19.9
2022-09-10T20:23:47.253Z,19.6
2022-09-10T20:25:47.250Z,19.9
2022-09-10T20:27:47.343Z,19.6
2022-09-10T20:29:47.329Z,19.5
2022-09-10T20:31:47.387Z,19.6
2022-09-10T20:33:47.207Z,19.7
2022-09-10T20:35:47.221Z,19.2
2022-09-10T20:37:51.614Z,19.4
2022-09-10T20:39:47.447Z,19.2
2022-09-10T20:41:47.345Z,19.0
2022-09-10T20:43:47.351Z,18.9
2022-09-10T20:45:47.226Z,18.8
2022-09-10T20:47:57.318Z,18.6
2022-09-10T20:49:57.182Z,18.8
2022-09-10T20:51:57.272Z,18.5
2022-09-10T20:53:57.244Z,18.5
2022-09-10T20:55:57.370Z,18.6
2022-09-10T20:57:57.329Z,18.7
2022-09-10T20:59:57.380Z,18.9
2022-09-10T21:01:57.466Z,18.9
2022-09-10T21:03:57.246Z,18.6
2022-09-10T21:05:57.335Z,18.5
2022-09-10T21:07:57.272Z,18.4
2022-09-10T21:09:57.553Z,18.5
2022-09-10T21:11:57.318Z,18.6
2022-09-10T21:13:57.310Z,18.6
2022-09-10T21:15:57.274Z,18.6
2022-09-10T21:17:57.217Z,18.6
2022-09-10T21:19:57.217Z,18.5
2022-09-10T21:21:57.273Z,18.4
2022-09-10T21:23:57.305Z,18.6
2022-09-10T21:25:57.291Z,18.3
2022-09-10T21:27:57.223Z,18.0
2022-09-10T21:29:57.248Z,18.3
2022-09-10T21:31:57.337Z,18.4
2022-09-10T21:34:01.957Z,18.4
2022-09-10T21:35:57.300Z,18.3
2022-09-10T21:37:57.786Z,18.2
2022-09-10T21:39:57.325Z,18.3
2022-09-10T21:41:57.221Z,18.3
2022-09-10T21:43:57.229Z,18.4
2022-09-10T21:45:57.253Z,18.4
2022-09-10T21:47:57.230Z,18.5
2022-09-10T21:52:27.256Z,18.5
2022-09-10T21:54:27.253Z,18.5
2022-09-10T21:56:27.348Z,18.6
2022-09-10T21:58:27.266Z,18.6
2022-09-10T22:00:27.229Z,18.5
2022-09-10T22:02:27.411Z,18.5
2022-09-10T22:04:27.288Z,18.9
2022-09-10T22:06:27.267Z,19.0
2022-09-10T22:08:27.295Z,19.1
2022-09-10T22:10:27.305Z,19.4
2022-09-10T22:12:27.309Z,19.1
2022-09-10T22:14:27.395Z,19.0
2022-09-10T22:16:27.277Z,19.0
2022-09-10T22:18:27.395Z,19.0
2022-09-10T22:20:27.302Z,18.9
2022-09-10T22:22:27.236Z,18.6
2022-09-10T22:24:27.246Z,18.8
2022-09-10T22:26:27.254Z,19.1
2022-09-10T22:28:27.263Z,19.0
2022-09-10T22:30:27.347Z,18.9
2022-09-10T22:32:27.296Z,18.7
2022-09-10T22:34:27.418Z,18.8
2022-09-10T22:36:27.271Z,18.8
2022-09-10T22:38:27.348Z,18.8
2022-09-10T22:40:27.244Z,19.0
2022-09-10T22:42:27.253Z,19.0
2022-09-10T22:44:27.267Z,18.9
2022-09-10T22:46:27.298Z,18.7
2022-09-10T22:48:27.307Z,19.1
2022-09-10T22:50:27.313Z,19.0
2022-09-10T22:52:27.248Z,19.1
2022-09-10T22:54:27.333Z,19.3
2022-09-10T22:56:27.305Z,19.2
2022-09-10T22:58:27.287Z,19.1
2022-09-10T23:00:27.265Z,19.1
2022-09-10T23:02:27.369Z,19.3
2022-09-10T23:04:27.301Z,19.0
2022-09-10T23:06:27.304Z,18.7
2022-09-10T23:08:27.327Z,18.7
2022-09-10T23:10:27.291Z,18.5
2022-09-10T23:12:27.389Z,18.6
2022-09-10T23:14:27.304Z,18.6
2022-09-10T23:16:27.284Z,18.6
2022-09-10T23:18:27.282Z,18.7
2022-09-10T23:20:27.350Z,18.9
2022-09-10T23:22:27.327Z,19.1
2022-09-10T23:24:27.323Z,19.3
2022-09-10T23:26:27.316Z,19.0
2022-09-10T23:28:27.317Z,19.2
2022-09-10T23:30:27.340Z,19.0
2022-09-10T23:32:27.405Z,19.2
2022-09-10T23:34:27.515Z,19.2
2022-09-10T23:36:27.321Z,19.3
2022-09-10T23:38:27.332Z,19.5
2022-09-10T23:40:31.070Z,19.4
2022-09-10T23:42:27.350Z,19.1
2022-09-10T23:44:57.486Z,19.2
2022-09-10T23:46:57.286Z,19.5
2022-09-10T23:48:57.289Z,19.7
2022-09-10T23:50:57.315Z,19.8
2022-09-10T23:52:57.372Z,19.8
2022-09-10T23:54:57.340Z,19.5
2022-09-10T23:56:57.304Z,19.5
2022-09-10T23:58:57.287Z,19.5
